Tk Rotterdam — A8RG8 — position and weather

sailwx.info

Track history (hours):
 
Tides and Currents Weather Stations Pressure Air Temp Water Temp Dewpoint Dewpoint Depression Visibility Wind Speed Wind Dir Waves Ship Positions

Tk Rotterdam

Last reported at 2014-Sep-15 11:16 UTC. Time now 2014-Sep-17 05:35 UTC.
Position N 41°15' E 029°10'.

Length 130 m; draft 5.2 m.

Type: Cargo ship. MMSI: 636014098.

Date/timePositionNaut miles runAvg speedWind from/ knotsBaromVisibWave heightAir tempDewpointWater temp
2014-Sep-15 11:16N 41°15' E 029°10'18 6.7
2014-Sep-15 08:33N 40°59' E 028°60'4 1.8
2014-Sep-15 06:30N 40°58' E 028°55'0 0.0
2014-Sep-15 05:30N 40°58' E 028°55'0 0.1
2014-Sep-15 04:29N 40°58' E 028°55'0 0.0
2014-Sep-15 02:28N 40°58' E 028°55'0 0.0
2014-Sep-15 01:21N 40°58' E 028°55'0 0.0
2014-Sep-14 23:32N 40°58' E 028°55'0 0.0
2014-Sep-14 19:06N 40°58' E 028°55'3 5.1
2014-Sep-14 18:33N 40°56' E 028°57'8 8.1
2014-Sep-14 17:33N 40°51' E 028°49'11 8.4
2014-Sep-14 16:15N 40°47' E 028°36'  
2014-Sep-10 20:07N 40°22' E 027°58'101 2.5
2014-Sep-09 04:05N 39°50' E 025°52'11011.5
2014-Sep-08 18:32N 38°13' E 024°48'52910.7
2014-Sep-06 17:07N 36°38' E 013°53'712.4
2014-Sep-06 16:33N 36°40' E 013°45'1212.4
2014-Sep-06 15:33N 36°44' E 013°30'1212.5
2014-Sep-06 14:33N 36°48' E 013°15'1212.2
2014-Sep-06 13:33N 36°52' E 013°01'  
Track history (hours):
 
Tides and Currents Weather Stations Pressure Air Temp Water Temp Dewpoint Dewpoint Depression Visibility Wind Speed Wind Dir Waves Ship Positions

Tk Rotterdam

Last reported at 2014-Sep-15 11:16 UTC. Time now 2014-Sep-17 05:35 UTC.
Position N 41°15' E 029°10'.

Length 130 m; draft 5.2 m.

Type: Cargo ship. MMSI: 636014098.

Date/timePositionNaut miles runAvg speedWind from/ knotsBaromVisibWave heightAir tempDewpointWater temp
2014-Sep-15 11:16N 41°15' E 029°10'18 6.7
2014-Sep-15 08:33N 40°59' E 028°60'4 1.8
2014-Sep-15 06:30N 40°58' E 028°55'0 0.0
2014-Sep-15 05:30N 40°58' E 028°55'0 0.1
2014-Sep-15 04:29N 40°58' E 028°55'0 0.0
2014-Sep-15 02:28N 40°58' E 028°55'0 0.0
2014-Sep-15 01:21N 40°58' E 028°55'0 0.0
2014-Sep-14 23:32N 40°58' E 028°55'0 0.0
2014-Sep-14 19:06N 40°58' E 028°55'3 5.1
2014-Sep-14 18:33N 40°56' E 028°57'8 8.1
2014-Sep-14 17:33N 40°51' E 028°49'11 8.4
2014-Sep-14 16:15N 40°47' E 028°36'  
2014-Sep-10 20:07N 40°22' E 027°58'101 2.5
2014-Sep-09 04:05N 39°50' E 025°52'11011.5
2014-Sep-08 18:32N 38°13' E 024°48'52910.7
2014-Sep-06 17:07N 36°38' E 013°53'712.4
2014-Sep-06 16:33N 36°40' E 013°45'1212.4
2014-Sep-06 15:33N 36°44' E 013°30'1212.5
2014-Sep-06 14:33N 36°48' E 013°15'1212.2
2014-Sep-06 13:33N 36°52' E 013°01'  

Dump ship's entire track history